Time,TemperatureF,DewpointF,PressureIn,WindDirection,WindDirectionDegrees,WindSpeedMPH,WindSpeedGustMPH,Humidity,HourlyPrecipIn,Conditions,Clouds,dailyrainin,SolarRadiationWatts/m^2,SoftwareType,DateUTC
2013-04-11 00:00:00,50.4,48.4,29.91,SE,134,0.0,3.0,93,0.01,,,0.15,0.0,meteohub,2013-04-11 04:00:00,
2013-04-11 00:05:00,50.4,48.4,29.92,South,187,0.0,2.0,93,0.01,,,0.00,0.0,meteohub,2013-04-11 04:05:00,
2013-04-11 00:10:00,50.4,48.4,29.91,South,187,0.0,2.0,93,0.02,,,0.01,0.0,meteohub,2013-04-11 04:10:00,
2013-04-11 00:15:00,50.4,48.7,29.91,South,186,1.0,2.0,94,0.02,,,0.01,0.0,meteohub,2013-04-11 04:15:00,
2013-04-11 00:20:00,50.5,48.9,29.90,SSE,166,0.0,3.0,94,0.04,,,0.03,0.0,meteohub,2013-04-11 04:20:00,
2013-04-11 00:25:00,50.5,48.9,29.90,SSE,160,2.0,4.0,94,0.05,,,0.04,0.0,meteohub,2013-04-11 04:25:00,
2013-04-11 00:30:00,50.7,49.1,29.89,South,171,3.0,4.0,94,0.06,,,0.05,0.0,meteohub,2013-04-11 04:30:00,
2013-04-11 00:35:00,50.7,49.1,29.88,South,182,3.0,4.0,94,0.07,,,0.06,0.0,meteohub,2013-04-11 04:35:00,
2013-04-11 00:40:00,50.7,49.1,29.88,South,174,2.0,6.0,94,0.09,,,0.08,0.0,meteohub,2013-04-11 04:40:00,
2013-04-11 00:45:00,50.7,49.1,29.88,South,187,3.0,6.0,94,0.08,,,0.08,0.0,meteohub,2013-04-11 04:45:00,
2013-04-11 00:50:00,50.7,49.3,29.88,SSW,195,2.0,6.0,95,0.08,,,0.08,0.0,meteohub,2013-04-11 04:50:00,
2013-04-11 00:56:00,50.7,49.3,29.88,South,171,0.0,5.0,95,0.09,,,0.09,0.0,meteohub,2013-04-11 04:56:00,
2013-04-11 01:01:00,50.9,49.5,29.87,SSW,201,0.0,4.0,95,0.09,,,0.09,0.0,meteohub,2013-04-11 05:01:00,
2013-04-11 01:06:00,50.9,49.5,29.87,SW,218,0.0,4.0,95,0.09,,,0.09,0.0,meteohub,2013-04-11 05:06:00,
2013-04-11 01:11:00,50.9,49.5,29.86,South,170,1.0,5.0,95,0.08,,,0.09,0.0,meteohub,2013-04-11 05:11:00,
2013-04-11 01:16:00,50.7,49.3,29.86,South,171,2.0,5.0,95,0.07,,,0.09,0.0,meteohub,2013-04-11 05:16:00,
2013-04-11 01:20:00,50.5,49.1,29.85,SSW,194,2.0,6.0,95,0.06,,,0.09,0.0,meteohub,2013-04-11 05:20:00,
2013-04-11 01:25:00,50.5,49.1,29.85,SSE,160,2.0,6.0,95,0.05,,,0.09,0.0,meteohub,2013-04-11 05:25:00,
2013-04-11 01:31:00,50.5,49.1,29.84,SE,142,5.0,6.0,95,0.03,,,0.09,0.0,meteohub,2013-04-11 05:31:00,
2013-04-11 01:36:00,50.4,48.9,29.84,South,188,3.0,7.0,95,0.02,,,0.09,0.0,meteohub,2013-04-11 05:36:00,
2013-04-11 01:41:00,50.4,48.9,29.84,South,188,4.0,7.0,95,0.01,,,0.09,0.0,meteohub,2013-04-11 05:41:00,
2013-04-11 01:46:00,50.4,48.9,29.84,SSW,204,5.0,7.0,95,0.01,,,0.09,0.0,meteohub,2013-04-11 05:46:00,
2013-04-11 01:51:00,50.4,48.9,29.85,SSW,193,2.0,7.0,95,0.01,,,0.09,0.0,meteohub,2013-04-11 05:51:00,
2013-04-11 01:56:00,50.2,48.7,29.85,SW,219,6.0,8.0,95,0.00,,,0.09,0.0,meteohub,2013-04-11 05:56:00,
2013-04-11 02:01:00,50.4,48.9,29.86,SSE,165,7.0,8.0,95,0.00,,,0.09,0.0,meteohub,2013-04-11 06:01:00,
2013-04-11 02:06:00,50.4,48.9,29.87,West,275,3.0,8.0,95,0.00,,,0.09,0.0,meteohub,2013-04-11 06:06:00,
2013-04-11 02:11:00,50.5,49.1,29.86,NNE,16,0.0,8.0,95,0.00,,,0.09,0.0,meteohub,2013-04-11 06:11:00,
2013-04-11 02:16:00,50.7,49.3,29.86,North,5,0.0,7.0,95,0.00,,,0.09,0.0,meteohub,2013-04-11 06:16:00,
2013-04-11 02:22:00,51.1,50.0,29.86,North,5,0.0,4.0,96,0.00,,,0.09,0.0,meteohub,2013-04-11 06:22:00,
2013-04-11 02:27:00,51.3,50.2,29.86,NNW,328,0.0,2.0,96,0.00,,,0.09,0.0,meteohub,2013-04-11 06:27:00,
2013-04-11 02:32:00,51.4,50.4,29.86,North,9,0.0,3.0,96,0.00,,,0.09,0.0,meteohub,2013-04-11 06:32:00,
2013-04-11 02:37:00,51.6,50.5,29.86,WNW,294,4.0,4.0,96,0.00,,,0.09,0.0,meteohub,2013-04-11 06:37:00,
2013-04-11 02:44:00,52.0,50.9,29.86,West,269,2.0,5.0,96,0.00,,,0.09,0.0,meteohub,2013-04-11 06:44:00,
2013-04-11 02:49:00,52.0,50.9,29.85,North,5,4.0,5.0,96,0.00,,,0.09,0.0,meteohub,2013-04-11 06:49:00,
2013-04-11 02:54:00,51.4,50.0,29.84,North,0,0.0,5.0,95,0.00,,,0.09,0.0,meteohub,2013-04-11 06:54:00,
2013-04-11 02:59:00,51.3,49.8,29.83,North,5,2.0,5.0,95,0.00,,,0.09,0.0,meteohub,2013-04-11 06:59:00,
2013-04-11 03:04:00,50.9,49.5,29.83,NE,34,3.0,5.0,95,0.00,,,0.09,0.0,meteohub,2013-04-11 07:04:00,
2013-04-11 03:09:00,50.7,49.3,29.83,North,10,2.0,5.0,95,0.00,,,0.09,0.0,meteohub,2013-04-11 07:09:00,
2013-04-11 03:14:00,50.5,49.1,29.83,North,5,0.0,5.0,95,0.00,,,0.09,0.0,meteohub,2013-04-11 07:14:00,
2013-04-11 03:19:00,50.4,48.9,29.83,North,9,3.0,5.0,95,0.00,,,0.09,0.0,meteohub,2013-04-11 07:19:00,
2013-04-11 03:24:00,50.2,48.7,29.83,NNE,16,5.0,6.0,95,0.00,,,0.09,0.0,meteohub,2013-04-11 07:24:00,
2013-04-11 03:29:00,50.0,48.6,29.83,NNE,26,4.0,6.0,95,0.00,,,0.09,0.0,meteohub,2013-04-11 07:29:00,
2013-04-11 03:34:00,49.8,48.4,29.83,North,355,1.0,7.0,95,0.00,,,0.09,0.0,meteohub,2013-04-11 07:34:00,
2013-04-11 03:39:00,49.8,48.7,29.83,NNE,24,3.0,7.0,96,0.00,,,0.09,0.0,meteohub,2013-04-11 07:39:00,
2013-04-11 03:44:00,49.6,48.6,29.84,NNW,338,0.0,7.0,96,0.00,,,0.09,0.0,meteohub,2013-04-11 07:44:00,
2013-04-11 03:49:00,49.6,48.6,29.84,NNW,341,1.0,7.0,96,0.00,,,0.09,0.0,meteohub,2013-04-11 07:49:00,
2013-04-11 03:54:00,49.5,48.4,29.84,North,349,2.0,7.0,96,0.00,,,0.09,0.0,meteohub,2013-04-11 07:54:00,
2013-04-11 03:59:00,49.3,48.2,29.85,NNE,24,5.0,7.0,96,0.00,,,0.09,0.0,meteohub,2013-04-11 07:59:00,
2013-04-11 04:04:00,48.7,47.3,29.85,North,0,5.0,8.0,95,0.00,,,0.09,0.0,meteohub,2013-04-11 08:04:00,
2013-04-11 04:09:00,48.6,47.5,29.85,NE,35,6.0,8.0,96,0.00,,,0.09,0.0,meteohub,2013-04-11 08:09:00,
2013-04-11 04:14:00,48.6,47.5,29.85,ENE,58,7.0,8.0,96,0.01,,,0.10,0.0,meteohub,2013-04-11 08:14:00,
2013-04-11 04:19:00,48.6,47.5,29.86,NNE,20,4.0,10.0,96,0.01,,,0.10,0.0,meteohub,2013-04-11 08:19:00,
2013-04-11 04:24:00,48.4,47.3,29.87,NNE,31,4.0,10.0,96,0.01,,,0.10,0.0,meteohub,2013-04-11 08:24:00,
2013-04-11 04:29:00,48.4,47.3,29.86,NNE,22,5.0,10.0,96,0.01,,,0.10,0.0,meteohub,2013-04-11 08:29:00,
2013-04-11 04:34:00,48.0,46.6,29.87,NE,43,8.0,10.0,95,0.01,,,0.10,0.0,meteohub,2013-04-11 08:34:00,
2013-04-11 04:39:00,47.8,46.8,29.88,NNE,22,6.0,10.0,96,0.01,,,0.10,0.0,meteohub,2013-04-11 08:39:00,
2013-04-11 04:44:00,47.7,46.2,29.88,NNE,31,3.0,10.0,95,0.01,,,0.10,0.0,meteohub,2013-04-11 08:44:00,
2013-04-11 04:50:00,47.5,46.4,29.88,NNE,30,2.0,10.0,96,0.01,,,0.10,0.0,meteohub,2013-04-11 08:50:00,
2013-04-11 04:55:00,47.5,46.4,29.88,NNE,12,2.0,10.0,96,0.01,,,0.10,0.0,meteohub,2013-04-11 08:55:00,
2013-04-11 05:00:00,47.5,46.4,29.88,NE,56,3.0,8.0,96,0.01,,,0.10,0.0,meteohub,2013-04-11 09:00:00,
2013-04-11 05:05:00,47.3,46.2,29.88,NE,56,3.0,8.0,96,0.01,,,0.10,0.0,meteohub,2013-04-11 09:05:00,
2013-04-11 05:10:00,46.9,45.9,29.88,NE,42,4.0,7.0,96,0.01,,,0.10,0.0,meteohub,2013-04-11 09:10:00,
2013-04-11 05:15:00,46.9,45.9,29.89,NNE,17,2.0,7.0,96,0.00,,,0.10,0.0,meteohub,2013-04-11 09:15:00,
2013-04-11 05:20:00,46.9,45.9,29.89,NNE,28,4.0,7.0,96,0.00,,,0.10,0.0,meteohub,2013-04-11 09:20:00,
2013-04-11 05:25:00,46.9,45.9,29.89,North,10,5.0,8.0,96,0.00,,,0.10,0.0,meteohub,2013-04-11 09:25:00,
2013-04-11 05:30:00,46.9,45.9,29.89,North,5,5.0,8.0,96,0.00,,,0.10,0.0,meteohub,2013-04-11 09:30:00,
2013-04-11 05:35:00,46.8,45.7,29.90,NNE,13,4.0,8.0,96,0.00,,,0.10,0.0,meteohub,2013-04-11 09:35:00,
2013-04-11 05:40:00,46.9,45.9,29.91,North,0,4.0,7.0,96,0.00,,,0.10,0.0,meteohub,2013-04-11 09:40:00,
2013-04-11 05:45:00,46.9,45.9,29.91,North,351,3.0,7.0,96,0.00,,,0.10,0.0,meteohub,2013-04-11 09:45:00,
2013-04-11 05:50:00,46.9,45.9,29.91,NW,325,3.0,6.0,96,0.00,,,0.10,0.0,meteohub,2013-04-11 09:50:00,
2013-04-11 05:55:00,47.1,46.0,29.92,North,5,0.0,6.0,96,0.00,,,0.10,0.0,meteohub,2013-04-11 09:55:00,
2013-04-11 06:00:00,47.1,46.0,29.92,North,0,2.0,6.0,96,0.00,,,0.10,0.0,meteohub,2013-04-11 10:00:00,
2013-04-11 06:05:00,47.3,46.2,29.93,North,351,1.0,5.0,96,0.00,,,0.10,0.0,meteohub,2013-04-11 10:05:00,
2013-04-11 06:10:00,47.5,46.4,29.92,NNE,28,4.0,4.0,96,0.00,,,0.10,0.0,meteohub,2013-04-11 10:10:00,
2013-04-11 06:15:00,47.5,46.4,29.93,NNE,17,3.0,4.0,96,0.00,,,0.10,0.0,meteohub,2013-04-11 10:15:00,
2013-04-11 06:20:00,47.7,46.6,29.93,North,5,3.0,5.0,96,0.00,,,0.10,0.0,meteohub,2013-04-11 10:20:00,
2013-04-11 06:25:00,47.7,46.9,29.94,North,355,1.0,5.0,97,0.00,,,0.10,0.0,meteohub,2013-04-11 10:25:00,
2013-04-11 06:30:00,47.8,46.9,29.93,North,355,2.0,5.0,97,0.00,,,0.10,5.0,meteohub,2013-04-11 10:30:00,
2013-04-11 06:35:00,47.8,46.9,29.93,North,5,5.0,6.0,97,0.00,,,0.10,9.0,meteohub,2013-04-11 10:35:00,
2013-04-11 06:40:00,48.0,46.9,29.94,North,9,3.0,6.0,96,0.00,,,0.10,14.0,meteohub,2013-04-11 10:40:00,
2013-04-11 06:45:00,48.0,46.9,29.94,North,355,0.0,5.0,96,0.00,,,0.10,18.0,meteohub,2013-04-11 10:45:00,
2013-04-11 06:50:00,48.2,47.1,29.95,North,355,0.0,5.0,96,0.00,,,0.10,16.0,meteohub,2013-04-11 10:50:00,
2013-04-11 06:55:00,48.4,47.5,29.96,North,355,0.0,5.0,97,0.00,,,0.10,25.0,meteohub,2013-04-11 10:55:00,
2013-04-11 07:00:00,48.4,47.5,29.95,North,11,1.0,2.0,97,0.00,,,0.10,37.0,meteohub,2013-04-11 11:00:00,
2013-04-11 07:05:00,48.6,47.7,29.96,North,11,0.0,3.0,97,0.00,,,0.10,30.0,meteohub,2013-04-11 11:05:00,
2013-04-11 07:10:00,48.6,47.7,29.96,North,11,0.0,3.0,97,0.00,,,0.10,26.0,meteohub,2013-04-11 11:10:00,
2013-04-11 07:15:00,48.6,47.5,29.96,North,11,0.0,3.0,96,0.00,,,0.10,28.0,meteohub,2013-04-11 11:15:00,
2013-04-11 07:20:00,48.6,47.5,29.97,North,11,1.0,3.0,96,0.00,,,0.10,21.0,meteohub,2013-04-11 11:20:00,
2013-04-11 07:25:00,48.7,47.7,29.97,North,350,1.0,2.0,96,0.00,,,0.10,19.0,meteohub,2013-04-11 11:25:00,
2013-04-11 07:30:00,48.7,47.8,29.97,NNE,15,1.0,3.0,97,0.00,,,0.10,19.0,meteohub,2013-04-11 11:30:00,
2013-04-11 07:35:00,48.7,47.8,29.97,NNE,15,0.0,3.0,97,0.00,,,0.10,19.0,meteohub,2013-04-11 11:35:00,
2013-04-11 07:40:00,48.7,47.7,29.97,NNE,33,1.0,3.0,96,0.00,,,0.10,46.0,meteohub,2013-04-11 11:40:00,
2013-04-11 07:45:00,48.7,47.7,29.97,NNE,33,0.0,3.0,96,0.00,,,0.10,81.0,meteohub,2013-04-11 11:45:00,
2013-04-11 07:50:00,48.9,48.0,29.97,NNE,33,0.0,3.0,97,0.00,,,0.10,95.0,meteohub,2013-04-11 11:50:00,
2013-04-11 07:55:00,49.1,48.0,29.97,NNE,33,0.0,2.0,96,0.00,,,0.10,67.0,meteohub,2013-04-11 11:55:00,
2013-04-11 08:00:00,49.1,48.0,29.97,NNE,33,0.0,2.0,96,0.00,,,0.10,76.0,meteohub,2013-04-11 12:00:00,
2013-04-11 08:05:00,49.1,48.0,29.97,NNE,33,1.0,2.0,96,0.00,,,0.10,79.0,meteohub,2013-04-11 12:05:00,
2013-04-11 08:10:00,49.1,48.0,29.97,NNE,33,0.0,2.0,96,0.00,,,0.10,79.0,meteohub,2013-04-11 12:10:00,
2013-04-11 08:15:00,49.3,48.2,29.97,NNE,33,0.0,2.0,96,0.00,,,0.10,79.0,meteohub,2013-04-11 12:15:00,
2013-04-11 08:20:00,49.3,48.2,29.97,NNE,33,0.0,2.0,96,0.00,,,0.10,111.0,meteohub,2013-04-11 12:20:00,
2013-04-11 08:25:00,49.5,48.4,29.97,NNE,33,0.0,2.0,96,0.00,,,0.10,105.0,meteohub,2013-04-11 12:25:00,
2013-04-11 08:30:00,49.5,48.4,29.98,NNE,33,0.0,2.0,96,0.00,,,0.10,83.0,meteohub,2013-04-11 12:30:00,
2013-04-11 08:35:00,49.6,48.6,29.98,North,10,0.0,2.0,96,0.00,,,0.10,132.0,meteohub,2013-04-11 12:35:00,
2013-04-11 08:40:00,49.6,48.6,29.98,NNE,13,2.0,4.0,96,0.00,,,0.10,104.0,meteohub,2013-04-11 12:40:00,
2013-04-11 08:45:00,49.6,48.2,29.98,NNE,13,2.0,4.0,95,0.00,,,0.10,118.0,meteohub,2013-04-11 12:45:00,
2013-04-11 08:50:00,49.6,48.2,29.98,North,5,2.0,4.0,95,0.00,,,0.10,163.0,meteohub,2013-04-11 12:50:00,
2013-04-11 08:55:00,49.8,48.4,29.98,ENE,73,1.0,6.0,95,0.00,,,0.10,160.0,meteohub,2013-04-11 12:55:00,
2013-04-11 09:00:00,50.2,48.7,29.98,North,351,3.0,6.0,95,0.00,,,0.10,176.0,meteohub,2013-04-11 13:00:00,
2013-04-11 09:05:00,50.2,48.6,29.99,North,0,1.0,6.0,94,0.00,,,0.10,144.0,meteohub,2013-04-11 13:05:00,
2013-04-11 09:11:00,50.4,48.7,29.99,NNW,338,2.0,6.0,94,0.00,,,0.10,118.0,meteohub,2013-04-11 13:11:00,
2013-04-11 09:16:00,50.2,48.6,29.99,NNE,17,2.0,7.0,94,0.00,,,0.10,144.0,meteohub,2013-04-11 13:16:00,
2013-04-11 09:21:00,50.4,48.7,29.99,North,355,3.0,7.0,94,0.00,,,0.10,156.0,meteohub,2013-04-11 13:21:00,
2013-04-11 09:26:00,50.4,48.7,29.99,NNW,335,4.0,7.0,94,0.00,,,0.10,125.0,meteohub,2013-04-11 13:26:00,
2013-04-11 09:31:00,50.4,48.7,30.00,North,355,7.0,8.0,94,0.00,,,0.10,137.0,meteohub,2013-04-11 13:31:00,
2013-04-11 09:36:00,50.5,48.6,30.00,North,9,6.0,9.0,93,0.00,,,0.10,109.0,meteohub,2013-04-11 13:36:00,
2013-04-11 09:41:00,50.7,48.7,30.00,NE,34,9.0,10.0,93,0.00,,,0.10,171.0,meteohub,2013-04-11 13:41:00,
2013-04-11 09:46:00,50.9,48.9,30.00,North,350,4.0,11.0,93,0.00,,,0.10,179.0,meteohub,2013-04-11 13:46:00,
2013-04-11 09:51:00,51.1,48.9,30.00,NNE,28,7.0,11.0,92,0.00,,,0.10,216.0,meteohub,2013-04-11 13:51:00,
2013-04-11 09:56:00,51.3,49.1,29.99,NNW,342,3.0,11.0,92,0.00,,,0.10,204.0,meteohub,2013-04-11 13:56:00,
2013-04-11 10:01:00,51.3,48.7,30.00,North,355,5.0,11.0,91,0.00,,,0.10,179.0,meteohub,2013-04-11 14:01:00,
2013-04-11 10:06:00,51.3,48.7,30.00,NE,36,3.0,11.0,91,0.00,,,0.10,243.0,meteohub,2013-04-11 14:06:00,
2013-04-11 10:11:00,51.4,48.9,29.99,North,5,3.0,10.0,91,0.00,,,0.10,243.0,meteohub,2013-04-11 14:11:00,
2013-04-11 10:16:00,51.4,48.9,29.99,North,350,8.0,9.0,91,0.00,,,0.10,230.0,meteohub,2013-04-11 14:16:00,
2013-04-11 10:21:00,51.4,48.9,29.99,NNE,14,3.0,9.0,91,0.00,,,0.10,318.0,meteohub,2013-04-11 14:21:00,
2013-04-11 10:26:00,52.0,49.5,29.99,NNE,31,4.0,9.0,91,0.00,,,0.10,373.0,meteohub,2013-04-11 14:26:00,
2013-04-11 10:31:00,52.0,48.9,29.99,North,355,7.0,8.0,89,0.00,,,0.10,380.0,meteohub,2013-04-11 14:31:00,
2013-04-11 10:37:00,52.3,49.5,29.99,NNE,29,6.0,9.0,90,0.00,,,0.10,566.0,meteohub,2013-04-11 14:37:00,
2013-04-11 10:42:00,52.7,49.5,29.99,NE,53,3.0,9.0,89,0.00,,,0.10,548.0,meteohub,2013-04-11 14:42:00,
2013-04-11 10:47:00,52.5,49.5,30.00,NNE,16,2.0,9.0,89,0.00,,,0.10,506.0,meteohub,2013-04-11 14:47:00,
2013-04-11 10:52:00,52.7,49.5,30.00,North,0,2.0,9.0,89,0.00,,,0.10,504.0,meteohub,2013-04-11 14:52:00,
2013-04-11 10:57:00,53.2,49.8,30.00,ENE,67,2.0,9.0,88,0.00,,,0.10,645.0,meteohub,2013-04-11 14:57:00,
2013-04-11 11:02:00,53.6,49.8,30.00,NE,34,3.0,8.0,87,0.00,,,0.10,554.0,meteohub,2013-04-11 15:02:00,
2013-04-11 11:08:00,53.2,49.5,30.00,NE,51,6.0,6.0,87,0.00,,,0.10,584.0,meteohub,2013-04-11 15:08:00,
2013-04-11 11:13:00,53.2,49.5,30.00,NNE,25,6.0,9.0,87,0.00,,,0.10,631.0,meteohub,2013-04-11 15:13:00,
2013-04-11 11:18:00,53.2,49.5,30.00,NNE,26,3.0,9.0,87,0.00,,,0.10,731.0,meteohub,2013-04-11 15:18:00,
2013-04-11 11:23:00,53.8,50.0,30.01,ENE,58,5.0,9.0,87,0.00,,,0.10,777.0,meteohub,2013-04-11 15:23:00,
2013-04-11 11:28:00,54.0,50.2,30.01,NNE,23,3.0,10.0,87,0.00,,,0.10,838.0,meteohub,2013-04-11 15:28:00,
2013-04-11 11:33:00,54.3,49.8,30.01,ENE,65,4.0,10.0,85,0.00,,,0.10,854.0,meteohub,2013-04-11 15:33:00,
2013-04-11 11:38:00,54.5,50.0,30.01,NE,52,8.0,10.0,85,0.00,,,0.10,872.0,meteohub,2013-04-11 15:38:00,
2013-04-11 11:43:00,54.7,50.0,30.01,NE,38,7.0,10.0,84,0.00,,,0.10,849.0,meteohub,2013-04-11 15:43:00,
2013-04-11 11:48:00,54.3,49.6,30.01,NNE,33,8.0,10.0,84,0.00,,,0.10,689.0,meteohub,2013-04-11 15:48:00,
2013-04-11 11:53:00,54.0,49.3,30.00,NNE,26,7.0,10.0,84,0.00,,,0.10,752.0,meteohub,2013-04-11 15:53:00,
2013-04-11 11:58:00,54.0,49.3,30.01,NNE,26,8.0,11.0,84,0.00,,,0.10,898.0,meteohub,2013-04-11 15:58:00,
2013-04-11 12:03:00,54.1,49.8,30.01,NE,49,7.0,11.0,85,0.00,,,0.10,679.0,meteohub,2013-04-11 16:03:00,
2013-04-11 12:08:00,54.7,50.2,30.01,NE,34,4.0,11.0,85,0.00,,,0.10,816.0,meteohub,2013-04-11 16:08:00,
2013-04-11 12:13:00,55.0,49.6,30.01,NE,49,3.0,10.0,82,0.00,,,0.10,856.0,meteohub,2013-04-11 16:13:00,
2013-04-11 12:18:00,55.4,50.0,30.01,NE,46,4.0,9.0,82,0.00,,,0.10,814.0,meteohub,2013-04-11 16:18:00,
2013-04-11 12:23:00,55.8,50.0,30.01,ENE,76,7.0,10.0,81,0.00,,,0.10,770.0,meteohub,2013-04-11 16:23:00,
2013-04-11 12:28:00,55.4,49.6,30.01,NE,46,4.0,10.0,81,0.00,,,0.10,809.0,meteohub,2013-04-11 16:28:00,
2013-04-11 12:33:00,55.8,50.0,30.01,North,355,4.0,12.0,81,0.00,,,0.10,861.0,meteohub,2013-04-11 16:33:00,
2013-04-11 12:38:00,56.1,49.6,30.01,East,100,5.0,12.0,79,0.00,,,0.10,394.0,meteohub,2013-04-11 16:38:00,
2013-04-11 12:43:00,55.6,49.8,30.02,South,180,2.0,12.0,81,0.00,,,0.10,399.0,meteohub,2013-04-11 16:43:00,
2013-04-11 12:48:00,55.6,50.2,30.02,SE,144,2.0,9.0,82,0.00,,,0.10,679.0,meteohub,2013-04-11 16:48:00,
2013-04-11 12:53:00,55.2,49.5,30.02,ESE,117,3.0,9.0,81,0.00,,,0.10,471.0,meteohub,2013-04-11 16:53:00,
2013-04-11 12:58:00,54.0,48.9,30.02,ESE,103,3.0,8.0,83,0.00,,,0.10,977.0,meteohub,2013-04-11 16:58:00,
2013-04-11 13:04:00,54.0,49.3,30.02,SSE,153,8.0,8.0,84,0.00,,,0.10,940.0,meteohub,2013-04-11 17:04:00,
2013-04-11 13:09:00,53.6,49.3,30.02,South,178,2.0,8.0,85,0.00,,,0.10,399.0,meteohub,2013-04-11 17:09:00,
2013-04-11 13:14:00,53.6,49.3,30.02,South,186,3.0,8.0,85,0.00,,,0.10,552.0,meteohub,2013-04-11 17:14:00,
2013-04-11 13:19:00,54.0,49.6,30.02,SSE,167,3.0,8.0,85,0.00,,,0.10,392.0,meteohub,2013-04-11 17:19:00,
2013-04-11 13:24:00,54.0,49.3,30.02,South,179,4.0,7.0,84,0.00,,,0.10,510.0,meteohub,2013-04-11 17:24:00,
2013-04-11 13:29:00,54.3,49.6,30.02,South,170,3.0,9.0,84,0.00,,,0.10,313.0,meteohub,2013-04-11 17:29:00,
2013-04-11 13:34:00,54.7,49.6,30.03,ESE,110,3.0,12.0,83,0.00,,,0.10,241.0,meteohub,2013-04-11 17:34:00,
2013-04-11 13:39:00,55.2,49.8,30.03,East,86,3.0,12.0,82,0.00,,,0.10,513.0,meteohub,2013-04-11 17:39:00,
2013-04-11 13:44:00,55.2,49.5,30.02,SSE,161,7.0,12.0,81,0.00,,,0.10,323.0,meteohub,2013-04-11 17:44:00,
2013-04-11 13:49:00,55.2,49.5,30.02,ESE,111,2.0,9.0,81,0.00,,,0.10,420.0,meteohub,2013-04-11 17:49:00,
2013-04-11 13:54:00,55.8,49.6,30.03,SE,146,2.0,9.0,80,0.00,,,0.10,636.0,meteohub,2013-04-11 17:54:00,
2013-04-11 13:59:00,55.9,49.5,30.03,SE,136,1.0,9.0,79,0.00,,,0.10,861.0,meteohub,2013-04-11 17:59:00,
2013-04-11 14:04:00,56.1,49.3,30.02,ESE,112,4.0,9.0,78,0.00,,,0.10,861.0,meteohub,2013-04-11 18:04:00,
2013-04-11 14:09:00,55.6,48.6,30.02,ESE,107,5.0,9.0,77,0.00,,,0.10,754.0,meteohub,2013-04-11 18:09:00,
2013-04-11 14:14:00,55.4,48.7,30.02,East,91,7.0,11.0,78,0.00,,,0.10,884.0,meteohub,2013-04-11 18:14:00,
2013-04-11 14:19:00,55.0,48.4,30.02,ESE,119,5.0,11.0,78,0.00,,,0.10,816.0,meteohub,2013-04-11 18:19:00,
2013-04-11 14:24:00,54.9,48.2,30.03,ENE,71,7.0,11.0,78,0.00,,,0.10,747.0,meteohub,2013-04-11 18:24:00,
2013-04-11 14:29:00,54.9,47.8,30.03,East,91,7.0,11.0,77,0.00,,,0.10,916.0,meteohub,2013-04-11 18:29:00,
2013-04-11 14:34:00,54.3,48.0,30.03,ESE,121,5.0,11.0,79,0.00,,,0.10,642.0,meteohub,2013-04-11 18:34:00,
2013-04-11 14:39:00,54.9,48.2,30.03,SE,134,9.0,12.0,78,0.00,,,0.10,503.0,meteohub,2013-04-11 18:39:00,
2013-04-11 14:44:00,54.3,47.7,30.03,SE,124,6.0,12.0,78,0.00,,,0.10,469.0,meteohub,2013-04-11 18:44:00,
2013-04-11 14:49:00,54.0,47.7,30.03,ESE,112,5.0,12.0,79,0.00,,,0.10,429.0,meteohub,2013-04-11 18:49:00,
2013-04-11 14:54:00,53.4,47.5,30.03,ENE,65,3.0,10.0,80,0.00,,,0.10,381.0,meteohub,2013-04-11 18:54:00,
2013-04-11 14:59:00,53.1,46.8,30.03,ESE,111,5.0,9.0,79,0.00,,,0.10,496.0,meteohub,2013-04-11 18:59:00,
2013-04-11 15:04:00,52.3,46.4,30.03,ENE,63,7.0,10.0,80,0.00,,,0.10,399.0,meteohub,2013-04-11 19:04:00,
2013-04-11 15:09:00,52.0,46.0,30.03,East,96,7.0,10.0,80,0.00,,,0.10,369.0,meteohub,2013-04-11 19:09:00,
2013-04-11 15:14:00,52.2,46.6,30.03,ENE,67,7.0,14.0,81,0.00,,,0.10,461.0,meteohub,2013-04-11 19:14:00,
2013-04-11 15:19:00,52.0,46.0,30.03,SE,128,4.0,14.0,80,0.00,,,0.10,497.0,meteohub,2013-04-11 19:19:00,
2013-04-11 15:24:00,51.4,45.9,30.03,ENE,65,7.0,14.0,81,0.00,,,0.10,394.0,meteohub,2013-04-11 19:24:00,
2013-04-11 15:29:00,51.3,45.3,30.03,East,92,8.0,14.0,80,0.00,,,0.10,346.0,meteohub,2013-04-11 19:29:00,
2013-04-11 15:35:00,51.1,45.5,30.03,East,86,8.0,14.0,81,0.00,,,0.10,316.0,meteohub,2013-04-11 19:35:00,
2013-04-11 15:40:00,50.7,44.8,30.02,ESE,115,8.0,14.0,80,0.00,,,0.10,281.0,meteohub,2013-04-11 19:40:00,
2013-04-11 15:45:00,50.5,44.6,30.02,North,0,6.0,15.0,80,0.00,,,0.10,274.0,meteohub,2013-04-11 19:45:00,
2013-04-11 15:50:00,50.2,44.6,30.02,East,85,5.0,15.0,81,0.00,,,0.10,246.0,meteohub,2013-04-11 19:50:00,
2013-04-11 15:55:00,50.2,44.6,30.03,ESE,120,4.0,15.0,81,0.00,,,0.10,221.0,meteohub,2013-04-11 19:55:00,
2013-04-11 16:00:00,50.2,44.2,30.04,East,101,8.0,16.0,80,0.00,,,0.10,204.0,meteohub,2013-04-11 20:00:00,
2013-04-11 16:05:00,49.8,43.9,30.04,ENE,71,2.0,16.0,80,0.00,,,0.10,195.0,meteohub,2013-04-11 20:05:00,
2013-04-11 16:10:00,49.8,43.9,30.03,ESE,105,4.0,16.0,80,0.00,,,0.10,172.0,meteohub,2013-04-11 20:10:00,
2013-04-11 16:15:00,49.6,43.7,30.03,East,83,2.0,10.0,80,0.00,,,0.10,160.0,meteohub,2013-04-11 20:15:00,
2013-04-11 16:20:00,49.3,43.3,30.04,East,98,11.0,11.0,80,0.00,,,0.10,148.0,meteohub,2013-04-11 20:20:00,
2013-04-11 16:25:00,49.3,43.7,30.04,ESE,104,4.0,10.0,81,0.00,,,0.10,179.0,meteohub,2013-04-11 20:25:00,
2013-04-11 16:30:00,49.3,43.3,30.03,ESE,102,4.0,13.0,80,0.00,,,0.10,225.0,meteohub,2013-04-11 20:30:00,
2013-04-11 16:35:00,49.3,43.0,30.04,ENE,70,4.0,13.0,79,0.00,,,0.10,169.0,meteohub,2013-04-11 20:35:00,
2013-04-11 16:40:00,49.3,43.0,30.04,East,86,5.0,11.0,79,0.00,,,0.10,135.0,meteohub,2013-04-11 20:40:00,
2013-04-11 16:45:00,49.5,43.5,30.04,ESE,117,1.0,11.0,80,0.00,,,0.10,162.0,meteohub,2013-04-11 20:45:00,
2013-04-11 16:50:00,49.5,43.2,30.04,ENE,71,2.0,12.0,79,0.00,,,0.10,153.0,meteohub,2013-04-11 20:50:00,
2013-04-11 16:55:00,49.5,43.2,30.04,ENE,67,1.0,13.0,79,0.00,,,0.10,153.0,meteohub,2013-04-11 20:55:00,
2013-04-11 17:00:00,49.1,42.6,30.04,ESE,111,8.0,13.0,78,0.00,,,0.10,165.0,meteohub,2013-04-11 21:00:00,
2013-04-11 17:05:00,48.9,42.6,30.04,East,92,6.0,13.0,79,0.00,,,0.10,169.0,meteohub,2013-04-11 21:05:00,
2013-04-11 17:10:00,48.7,42.8,30.04,ENE,74,3.0,11.0,80,0.00,,,0.10,98.0,meteohub,2013-04-11 21:10:00,
2013-04-11 17:15:00,48.7,42.4,30.04,ESE,108,2.0,11.0,79,0.00,,,0.10,72.0,meteohub,2013-04-11 21:15:00,
2013-04-11 17:20:00,48.7,42.4,30.04,ESE,109,2.0,11.0,79,0.00,,,0.10,83.0,meteohub,2013-04-11 21:20:00,
2013-04-11 17:25:00,48.6,42.6,30.04,East,98,5.0,11.0,80,0.00,,,0.10,104.0,meteohub,2013-04-11 21:25:00,
2013-04-11 17:30:00,48.4,42.8,30.05,East,91,6.0,11.0,81,0.00,,,0.10,81.0,meteohub,2013-04-11 21:30:00,
2013-04-11 17:35:00,48.0,42.4,30.05,East,94,2.0,11.0,81,0.00,,,0.10,65.0,meteohub,2013-04-11 21:35:00,
2013-04-11 17:40:00,47.8,42.6,30.05,ESE,107,9.0,10.0,82,0.00,,,0.10,60.0,meteohub,2013-04-11 21:40:00,
2013-04-11 17:45:00,47.7,42.4,30.05,SSE,147,8.0,10.0,82,0.00,,,0.10,54.0,meteohub,2013-04-11 21:45:00,
2013-04-11 17:50:00,47.5,42.6,30.05,East,97,6.0,11.0,83,0.00,,,0.10,63.0,meteohub,2013-04-11 21:50:00,
2013-04-11 17:55:00,47.3,42.8,30.05,SSE,162,2.0,11.0,84,0.00,,,0.10,58.0,meteohub,2013-04-11 21:55:00,
2013-04-11 18:00:00,47.1,42.3,30.05,ESE,112,3.0,11.0,83,0.00,,,0.10,51.0,meteohub,2013-04-11 22:00:00,
2013-04-11 18:05:00,46.9,41.7,30.06,ESE,119,3.0,13.0,82,0.00,,,0.10,42.0,meteohub,2013-04-11 22:05:00,
2013-04-11 18:10:00,46.8,41.5,30.06,East,92,3.0,13.0,82,0.00,,,0.10,44.0,meteohub,2013-04-11 22:10:00,
2013-04-11 18:15:00,46.6,41.4,30.05,SSE,155,8.0,13.0,82,0.00,,,0.10,53.0,meteohub,2013-04-11 22:15:00,
2013-04-11 18:20:00,46.6,41.4,30.06,East,93,7.0,11.0,82,0.00,,,0.10,51.0,meteohub,2013-04-11 22:20:00,
2013-04-11 18:25:00,46.6,41.4,30.06,ESE,118,7.0,10.0,82,0.00,,,0.10,40.0,meteohub,2013-04-11 22:25:00,
2013-04-11 18:30:00,46.4,40.8,30.06,SSE,159,9.0,11.0,81,0.00,,,0.10,35.0,meteohub,2013-04-11 22:30:00,
2013-04-11 18:35:00,46.4,40.6,30.07,SSE,150,3.0,13.0,80,0.00,,,0.10,28.0,meteohub,2013-04-11 22:35:00,
2013-04-11 18:40:00,46.2,40.5,30.07,SE,137,6.0,13.0,80,0.00,,,0.10,23.0,meteohub,2013-04-11 22:40:00,
2013-04-11 18:46:00,46.2,40.1,30.07,ESE,123,3.0,13.0,79,0.00,,,0.10,14.0,meteohub,2013-04-11 22:46:00,
2013-04-11 18:51:00,46.2,40.1,30.07,ESE,107,4.0,11.0,79,0.00,,,0.10,14.0,meteohub,2013-04-11 22:51:00,
2013-04-11 18:56:00,46.2,40.1,30.07,East,96,2.0,12.0,79,0.00,,,0.10,12.0,meteohub,2013-04-11 22:56:00,
2013-04-11 19:01:00,46.2,40.1,30.07,SE,125,8.0,12.0,79,0.00,,,0.10,7.0,meteohub,2013-04-11 23:01:00,
2013-04-11 19:06:00,46.2,40.5,30.08,ESE,121,3.0,12.0,80,0.00,,,0.10,5.0,meteohub,2013-04-11 23:06:00,
2013-04-11 19:11:00,46.2,40.5,30.08,SE,141,6.0,12.0,80,0.00,,,0.10,0.0,meteohub,2013-04-11 23:11:00,
2013-04-11 19:16:00,46.0,40.5,30.08,East,95,3.0,12.0,81,0.00,,,0.10,0.0,meteohub,2013-04-11 23:16:00,
2013-04-11 19:22:00,46.0,40.5,30.08,SE,127,5.0,11.0,81,0.00,,,0.10,0.0,meteohub,2013-04-11 23:22:00,
2013-04-11 19:27:00,46.0,40.5,30.08,SE,141,6.0,11.0,81,0.00,,,0.10,0.0,meteohub,2013-04-11 23:27:00,
2013-04-11 19:32:00,45.9,40.6,30.07,SE,124,5.0,11.0,82,0.00,,,0.10,0.0,meteohub,2013-04-11 23:32:00,
2013-04-11 19:37:00,45.9,40.6,30.07,SSW,194,4.0,14.0,82,0.00,,,0.10,0.0,meteohub,2013-04-11 23:37:00,
2013-04-11 19:42:00,45.9,40.3,30.08,East,96,6.0,14.0,81,0.00,,,0.10,0.0,meteohub,2013-04-11 23:42:00,
2013-04-11 19:47:00,45.9,40.3,30.08,ESE,123,2.0,17.0,81,0.00,,,0.10,0.0,meteohub,2013-04-11 23:47:00,
2013-04-11 19:52:00,45.9,40.1,30.08,SE,133,5.0,17.0,80,0.00,,,0.10,0.0,meteohub,2013-04-11 23:52:00,
2013-04-11 19:57:00,45.9,39.7,30.08,ESE,121,4.0,17.0,79,0.00,,,0.10,0.0,meteohub,2013-04-11 23:57:00,
2013-04-11 20:02:00,45.9,39.7,30.08,SSE,148,8.0,13.0,79,0.00,,,0.10,0.0,meteohub,2013-04-12 00:02:00,
2013-04-11 20:07:00,45.9,39.4,30.08,SE,128,3.0,13.0,78,0.00,,,0.10,0.0,meteohub,2013-04-12 00:07:00,
2013-04-11 20:12:00,45.9,39.7,30.08,SSE,163,5.0,13.0,79,0.00,,,0.10,0.0,meteohub,2013-04-12 00:12:00,
2013-04-11 20:17:00,45.9,39.7,30.08,SSE,151,7.0,13.0,79,0.00,,,0.10,0.0,meteohub,2013-04-12 00:17:00,
2013-04-11 20:22:00,45.9,39.7,30.09,SE,144,9.0,10.0,79,0.00,,,0.10,0.0,meteohub,2013-04-12 00:22:00,
2013-04-11 20:27:00,45.9,39.4,30.09,East,101,2.0,12.0,78,0.00,,,0.10,0.0,meteohub,2013-04-12 00:27:00,
2013-04-11 20:32:00,45.9,39.4,30.09,ESE,107,3.0,13.0,78,0.00,,,0.10,0.0,meteohub,2013-04-12 00:32:00,
2013-04-11 20:37:00,45.9,39.0,30.08,ESE,113,3.0,13.0,77,0.00,,,0.10,0.0,meteohub,2013-04-12 00:37:00,
2013-04-11 20:42:00,45.9,39.4,30.08,SE,126,2.0,13.0,78,0.00,,,0.10,0.0,meteohub,2013-04-12 00:42:00,
2013-04-11 20:47:00,45.9,39.4,30.09,ESE,122,5.0,13.0,78,0.00,,,0.10,0.0,meteohub,2013-04-12 00:47:00,
2013-04-11 20:52:00,45.9,39.4,30.09,ENE,75,9.0,13.0,78,0.00,,,0.10,0.0,meteohub,2013-04-12 00:52:00,
2013-04-11 20:57:00,45.9,39.4,30.09,ESE,102,7.0,13.0,78,0.00,,,0.10,0.0,meteohub,2013-04-12 00:57:00,
2013-04-11 21:02:00,45.9,39.0,30.09,ESE,117,4.0,13.0,77,0.00,,,0.10,0.0,meteohub,2013-04-12 01:02:00,
2013-04-11 21:07:00,45.9,38.7,30.09,SE,137,5.0,14.0,76,0.00,,,0.10,0.0,meteohub,2013-04-12 01:07:00,
2013-04-11 21:12:00,45.9,38.7,30.09,SE,141,8.0,14.0,76,0.00,,,0.10,0.0,meteohub,2013-04-12 01:12:00,
2013-04-11 21:17:00,45.9,38.7,30.10,East,84,8.0,14.0,76,0.00,,,0.10,0.0,meteohub,2013-04-12 01:17:00,
2013-04-11 21:22:00,45.9,38.3,30.10,ESE,117,5.0,13.0,75,0.00,,,0.10,0.0,meteohub,2013-04-12 01:22:00,
2013-04-11 21:27:00,45.9,38.7,30.11,SSE,148,2.0,13.0,76,0.00,,,0.10,0.0,meteohub,2013-04-12 01:27:00,
2013-04-11 21:32:00,45.9,38.3,30.11,ESE,106,4.0,13.0,75,0.00,,,0.10,0.0,meteohub,2013-04-12 01:32:00,
2013-04-11 21:37:00,46.0,38.5,30.11,SE,130,3.0,14.0,75,0.00,,,0.10,0.0,meteohub,2013-04-12 01:37:00,
2013-04-11 21:42:00,45.9,38.3,30.11,ESE,104,5.0,14.0,75,0.00,,,0.10,0.0,meteohub,2013-04-12 01:42:00,
2013-04-11 21:47:00,45.9,38.3,30.11,ESE,102,2.0,13.0,75,0.00,,,0.10,0.0,meteohub,2013-04-12 01:47:00,
2013-04-11 21:53:00,46.0,38.3,30.10,ENE,78,3.0,13.0,74,0.00,,,0.10,0.0,meteohub,2013-04-12 01:53:00,
2013-04-11 21:58:00,45.9,38.1,30.10,SSE,159,7.0,12.0,74,0.00,,,0.10,0.0,meteohub,2013-04-12 01:58:00,
2013-04-11 22:03:00,45.9,38.1,30.11,ESE,109,3.0,12.0,74,0.00,,,0.10,0.0,meteohub,2013-04-12 02:03:00,
2013-04-11 22:08:00,45.9,38.1,30.11,ESE,103,2.0,14.0,74,0.00,,,0.10,0.0,meteohub,2013-04-12 02:08:00,
2013-04-11 22:13:00,45.9,38.3,30.11,ESE,103,5.0,14.0,75,0.00,,,0.10,0.0,meteohub,2013-04-12 02:13:00,
2013-04-11 22:18:00,45.9,38.3,30.10,East,101,3.0,14.0,75,0.00,,,0.10,0.0,meteohub,2013-04-12 02:18:00,
2013-04-11 22:23:00,45.9,38.3,30.11,East,100,3.0,9.0,75,0.00,,,0.10,0.0,meteohub,2013-04-12 02:23:00,
2013-04-11 22:28:00,45.9,38.1,30.12,East,92,7.0,9.0,74,0.00,,,0.10,0.0,meteohub,2013-04-12 02:28:00,
2013-04-11 22:33:00,45.9,38.3,30.12,East,93,3.0,10.0,75,0.00,,,0.10,0.0,meteohub,2013-04-12 02:33:00,
2013-04-11 22:38:00,45.9,37.8,30.12,East,86,5.0,10.0,73,0.00,,,0.10,0.0,meteohub,2013-04-12 02:38:00,
2013-04-11 22:43:00,46.0,37.9,30.12,East,82,5.0,11.0,73,0.00,,,0.10,0.0,meteohub,2013-04-12 02:43:00,
2013-04-11 22:48:00,46.0,38.3,30.11,East,96,3.0,11.0,74,0.00,,,0.10,0.0,meteohub,2013-04-12 02:48:00,
2013-04-11 22:53:00,45.9,38.3,30.10,ESE,107,4.0,12.0,75,0.00,,,0.10,0.0,meteohub,2013-04-12 02:53:00,
2013-04-11 22:58:00,45.7,38.5,30.10,ESE,111,7.0,12.0,76,0.00,,,0.10,0.0,meteohub,2013-04-12 02:58:00,
2013-04-11 23:03:00,45.7,38.5,30.10,East,86,5.0,12.0,76,0.00,,,0.10,0.0,meteohub,2013-04-12 03:03:00,
2013-04-11 23:08:00,45.7,38.5,30.11,ESE,115,3.0,10.0,76,0.00,,,0.10,0.0,meteohub,2013-04-12 03:08:00,
2013-04-11 23:13:00,45.7,38.5,30.11,SE,137,6.0,10.0,76,0.00,,,0.10,0.0,meteohub,2013-04-12 03:13:00,
2013-04-11 23:18:00,45.7,38.5,30.12,East,92,3.0,10.0,76,0.00,,,0.10,0.0,meteohub,2013-04-12 03:18:00,
2013-04-11 23:23:00,45.7,38.5,30.12,ENE,78,3.0,9.0,76,0.00,,,0.10,0.0,meteohub,2013-04-12 03:23:00,
2013-04-11 23:28:00,45.7,38.5,30.12,ENE,78,10.0,12.0,76,0.00,,,0.10,0.0,meteohub,2013-04-12 03:28:00,
2013-04-11 23:33:00,45.7,38.5,30.12,East,98,5.0,12.0,76,0.00,,,0.10,0.0,meteohub,2013-04-12 03:33:00,
2013-04-11 23:38:00,45.7,38.5,30.11,East,97,6.0,13.0,76,0.00,,,0.10,0.0,meteohub,2013-04-12 03:38:00,
2013-04-11 23:43:00,45.7,38.8,30.11,East,86,6.0,13.0,77,0.00,,,0.10,0.0,meteohub,2013-04-12 03:43:00,
2013-04-11 23:49:00,45.7,38.8,30.11,ENE,63,4.0,16.0,77,0.00,,,0.10,0.0,meteohub,2013-04-12 03:49:00,
2013-04-11 23:54:00,45.7,38.8,30.11,ESE,115,8.0,16.0,77,0.00,,,0.10,0.0,meteohub,2013-04-12 03:54:00,
2013-04-11 23:59:00,45.7,38.8,30.11,ENE,65,7.0,16.0,77,0.00,,,0.10,0.0,meteohub,2013-04-12 03:59:00,